Airfield :
LOGIN :

Register | Disclaimer

   EN    FR    IT 

 










Legend :    VFR   Marginal VFR   IFR   Intensive IFR   Very Intensive IFR
Visi :
Ceiling :
>= 8 km
>= 3000ft
5 to 8 km
1000 to 3000 ft
1500m to 5 km
500 to 1000 ft
800 to 1500m
200 to 500 ft
< 800m
< 200 ft
Symbols :   Thunderstorms  Fog  Heavy snow  Heavy precipitations  Wind > 20 kt
SIGMETs :     Misc.  Thunderstorms  Icing  Turbulence  Mountain Waves  Volcanic Ashes






- Airport Elevation : 1106 ft


LFSO - Nancy / Ochey

CURRENT METAR :
  • 211730Z AUTO 31016KT 5000 RA BR FEW008/// SCT024/// BKN034/// ///CB 10/09 Q1013 TEMPO 30017G37KT BECMG NSW BKN020

EXPIRED METARs :
  • 211700Z AUTO 22015KT 9999 -RA OVC045/// ///CB 12/08 Q1011 TEMPO 30017G37KT 4500 -RA BECMG BKN020
  • 211630Z AUTO 21016KT 9999 OVC046/// ///TCU 13/06 Q1011 TEMPO 30017G37KT 4500 -RA BECMG BKN020
  • 211600Z AUTO 22020KT 9999 BKN049/// OVC056/// ///TCU 13/06 Q1011 TEMPO 4500 -RA BKN013 BKN025CB BECMG 30010KT
  • 211530Z AUTO 22018KT 9999 FEW045/// BKN052/// BKN084/// ///TCU 13/06 Q1011 TEMPO 4500 -RA BKN013 BKN025CB BECMG 30010KT
  • 211500Z AUTO 23021KT 9999 FEW045/// BKN058/// OVC072/// ///TCU 14/06 Q1011 TEMPO 2000 SHRA BKN013 BKN025CB BECMG 22020G30KT

TAF TAF LFSO
Valid from the 21 at 15:00 until the 22 at 15:00 UTC


211400Z 2115/2215 22020G30KT 9999 BKN045
TEMPO 2115/2119 4500 -RA
TEMPO 2115/2117 2000 SHRA BKN013 BKN025CB
BECMG 2117/2119 30010KT BKN020
TEMPO 2118/2119 30017G37KT
BECMG 2200/2202 BKN003
TEMPO 2204/2207 0600 FG VV///
BECMG 2207/2209 3000 BR SCT004
FM221000 22005KT CAVOK



MET'MAP, your aeronautical weather chart ! - Copyright ORBIFLY December 2007 - Disclaimer

ORBIFLY MET'MAP TEAM :

Programming & Development : Alexandra Zaïnal
Concept & original design : Baudouin d'Aumeries
Assistance for programming : Marc-Olivier Méhu
Technical & hardware support : Manuel Goepfert

Contact : metmap@orbifly.com




SOURCES & CREDITS :

   NOAA